sensor_id;sensor_type;location;lat;lon;timestamp;P1;durP1;ratioP1;P2;durP2;ratioP2
9398;SDS011;4739;49.334;8.792;2022-11-20T00:01:19;12.53;;;10.47;;
9398;SDS011;4739;49.334;8.792;2022-11-20T00:03:46;11.70;;;9.73;;
9398;SDS011;4739;49.334;8.792;2022-11-20T00:06:16;13.23;;;10.60;;
9398;SDS011;4739;49.334;8.792;2022-11-20T00:08:43;12.63;;;10.57;;
9398;SDS011;4739;49.334;8.792;2022-11-20T00:11:10;12.97;;;10.33;;
9398;SDS011;4739;49.334;8.792;2022-11-20T00:13:37;11.10;;;9.43;;
9398;SDS011;4739;49.334;8.792;2022-11-20T00:16:03;10.87;;;9.40;;
9398;SDS011;4739;49.334;8.792;2022-11-20T00:18:30;12.20;;;9.90;;
9398;SDS011;4739;49.334;8.792;2022-11-20T00:21:07;12.17;;;9.70;;
9398;SDS011;4739;49.334;8.792;2022-11-20T00:23:36;11.50;;;8.93;;
9398;SDS011;4739;49.334;8.792;2022-11-20T00:26:05;12.47;;;9.13;;
9398;SDS011;4739;49.334;8.792;2022-11-20T00:28:32;12.93;;;9.63;;
9398;SDS011;4739;49.334;8.792;2022-11-20T00:31:05;11.80;;;9.87;;
9398;SDS011;4739;49.334;8.792;2022-11-20T00:33:33;13.47;;;10.50;;
9398;SDS011;4739;49.334;8.792;2022-11-20T00:35:59;12.63;;;9.53;;
9398;SDS011;4739;49.334;8.792;2022-11-20T00:38:30;13.17;;;10.70;;
9398;SDS011;4739;49.334;8.792;2022-11-20T00:40:56;12.07;;;9.47;;
9398;SDS011;4739;49.334;8.792;2022-11-20T00:43:23;11.53;;;9.50;;
9398;SDS011;4739;49.334;8.792;2022-11-20T00:45:49;11.90;;;9.97;;
9398;SDS011;4739;49.334;8.792;2022-11-20T00:48:15;13.47;;;10.53;;
9398;SDS011;4739;49.334;8.792;2022-11-20T00:50:41;11.33;;;9.30;;
9398;SDS011;4739;49.334;8.792;2022-11-20T00:53:06;11.30;;;10.07;;
9398;SDS011;4739;49.334;8.792;2022-11-20T00:55:32;11.83;;;9.67;;
9398;SDS011;4739;49.334;8.792;2022-11-20T00:57:58;12.37;;;9.73;;
9398;SDS011;4739;49.334;8.792;2022-11-20T01:00:23;12.87;;;9.63;;
9398;SDS011;4739;49.334;8.792;2022-11-20T01:02:49;13.17;;;9.67;;
9398;SDS011;4739;49.334;8.792;2022-11-20T01:05:14;12.80;;;10.23;;
9398;SDS011;4739;49.334;8.792;2022-11-20T01:07:40;13.63;;;9.63;;
9398;SDS011;4739;49.334;8.792;2022-11-20T01:10:05;11.53;;;9.60;;
9398;SDS011;4739;49.334;8.792;2022-11-20T01:12:31;11.60;;;9.50;;
9398;SDS011;4739;49.334;8.792;2022-11-20T01:14:57;11.57;;;9.80;;
9398;SDS011;4739;49.334;8.792;2022-11-20T01:17:22;11.20;;;9.87;;
9398;SDS011;4739;49.334;8.792;2022-11-20T01:19:49;11.63;;;9.57;;
9398;SDS011;4739;49.334;8.792;2022-11-20T01:22:15;11.20;;;9.23;;
9398;SDS011;4739;49.334;8.792;2022-11-20T01:24:41;12.77;;;9.50;;
9398;SDS011;4739;49.334;8.792;2022-11-20T01:27:07;12.13;;;9.07;;
9398;SDS011;4739;49.334;8.792;2022-11-20T01:29:32;12.07;;;9.47;;
9398;SDS011;4739;49.334;8.792;2022-11-20T01:31:58;12.40;;;9.83;;
9398;SDS011;4739;49.334;8.792;2022-11-20T01:34:23;12.87;;;10.53;;
9398;SDS011;4739;49.334;8.792;2022-11-20T01:36:50;13.53;;;11.33;;
9398;SDS011;4739;49.334;8.792;2022-11-20T01:39:17;12.13;;;9.87;;
9398;SDS011;4739;49.334;8.792;2022-11-20T01:41:46;13.33;;;11.17;;
9398;SDS011;4739;49.334;8.792;2022-11-20T01:44:51;13.17;;;10.60;;
9398;SDS011;4739;49.334;8.792;2022-11-20T01:47:20;12.93;;;10.30;;
9398;SDS011;4739;49.334;8.792;2022-11-20T01:50:22;13.03;;;10.97;;
9398;SDS011;4739;49.334;8.792;2022-11-20T01:52:50;13.47;;;10.93;;
9398;SDS011;4739;49.334;8.792;2022-11-20T01:55:18;13.43;;;10.60;;
9398;SDS011;4739;49.334;8.792;2022-11-20T01:57:46;13.00;;;10.10;;
9398;SDS011;4739;49.334;8.792;2022-11-20T02:00:14;12.70;;;10.50;;
9398;SDS011;4739;49.334;8.792;2022-11-20T02:02:43;12.97;;;10.97;;
9398;SDS011;4739;49.334;8.792;2022-11-20T02:07:59;12.63;;;10.20;;
9398;SDS011;4739;49.334;8.792;2022-11-20T02:10:25;12.97;;;10.77;;
9398;SDS011;4739;49.334;8.792;2022-11-20T02:12:52;13.17;;;10.30;;
9398;SDS011;4739;49.334;8.792;2022-11-20T02:15:36;14.03;;;10.97;;
9398;SDS011;4739;49.334;8.792;2022-11-20T02:18:02;13.73;;;10.93;;
9398;SDS011;4739;49.334;8.792;2022-11-20T02:20:28;13.33;;;11.23;;
9398;SDS011;4739;49.334;8.792;2022-11-20T02:25:29;12.63;;;10.50;;
9398;SDS011;4739;49.334;8.792;2022-11-20T02:27:57;13.73;;;10.70;;
9398;SDS011;4739;49.334;8.792;2022-11-20T02:30:23;14.93;;;11.37;;
9398;SDS011;4739;49.334;8.792;2022-11-20T02:32:49;14.77;;;11.50;;
9398;SDS011;4739;49.334;8.792;2022-11-20T02:37:43;14.97;;;11.33;;
9398;SDS011;4739;49.334;8.792;2022-11-20T02:40:10;13.13;;;10.60;;
9398;SDS011;4739;49.334;8.792;2022-11-20T02:42:36;16.40;;;11.13;;
9398;SDS011;4739;49.334;8.792;2022-11-20T02:45:03;12.83;;;10.53;;
9398;SDS011;4739;49.334;8.792;2022-11-20T02:47:29;15.10;;;11.20;;
9398;SDS011;4739;49.334;8.792;2022-11-20T02:49:55;13.10;;;10.50;;
9398;SDS011;4739;49.334;8.792;2022-11-20T02:52:20;14.27;;;10.97;;
9398;SDS011;4739;49.334;8.792;2022-11-20T02:54:46;13.77;;;11.03;;
9398;SDS011;4739;49.334;8.792;2022-11-20T02:57:12;15.87;;;11.67;;
9398;SDS011;4739;49.334;8.792;2022-11-20T02:59:37;16.40;;;11.10;;
9398;SDS011;4739;49.334;8.792;2022-11-20T03:02:03;16.13;;;11.47;;
9398;SDS011;4739;49.334;8.792;2022-11-20T03:04:29;14.10;;;10.37;;
9398;SDS011;4739;49.334;8.792;2022-11-20T03:06:55;14.10;;;11.27;;
9398;SDS011;4739;49.334;8.792;2022-11-20T03:09:21;15.27;;;10.80;;
9398;SDS011;4739;49.334;8.792;2022-11-20T03:11:46;14.40;;;10.40;;
9398;SDS011;4739;49.334;8.792;2022-11-20T03:14:12;16.63;;;11.93;;
9398;SDS011;4739;49.334;8.792;2022-11-20T03:16:38;17.07;;;11.73;;
9398;SDS011;4739;49.334;8.792;2022-11-20T03:19:03;15.63;;;11.90;;
9398;SDS011;4739;49.334;8.792;2022-11-20T03:21:29;16.30;;;11.63;;
9398;SDS011;4739;49.334;8.792;2022-11-20T03:23:55;12.57;;;10.60;;
9398;SDS011;4739;49.334;8.792;2022-11-20T03:26:22;13.40;;;10.80;;
9398;SDS011;4739;49.334;8.792;2022-11-20T03:28:53;15.20;;;10.80;;
9398;SDS011;4739;49.334;8.792;2022-11-20T03:31:21;19.90;;;14.10;;
9398;SDS011;4739;49.334;8.792;2022-11-20T03:33:49;19.43;;;14.27;;
9398;SDS011;4739;49.334;8.792;2022-11-20T03:36:15;16.73;;;12.57;;
9398;SDS011;4739;49.334;8.792;2022-11-20T03:38:42;16.43;;;12.47;;
9398;SDS011;4739;49.334;8.792;2022-11-20T03:41:12;14.67;;;10.47;;
9398;SDS011;4739;49.334;8.792;2022-11-20T03:43:40;15.03;;;10.50;;
9398;SDS011;4739;49.334;8.792;2022-11-20T03:46:06;14.47;;;10.33;;
9398;SDS011;4739;49.334;8.792;2022-11-20T03:48:32;15.50;;;10.67;;
9398;SDS011;4739;49.334;8.792;2022-11-20T03:51:11;14.00;;;11.10;;
9398;SDS011;4739;49.334;8.792;2022-11-20T03:53:37;14.83;;;11.03;;
9398;SDS011;4739;49.334;8.792;2022-11-20T03:56:03;16.90;;;11.33;;
9398;SDS011;4739;49.334;8.792;2022-11-20T03:58:30;15.90;;;11.77;;
9398;SDS011;4739;49.334;8.792;2022-11-20T04:00:56;15.63;;;10.70;;
9398;SDS011;4739;49.334;8.792;2022-11-20T04:03:21;16.80;;;11.03;;
9398;SDS011;4739;49.334;8.792;2022-11-20T04:05:47;14.23;;;10.80;;
9398;SDS011;4739;49.334;8.792;2022-11-20T04:08:12;16.20;;;10.83;;
9398;SDS011;4739;49.334;8.792;2022-11-20T04:10:38;16.00;;;11.17;;
9398;SDS011;4739;49.334;8.792;2022-11-20T04:13:03;15.20;;;11.53;;
9398;SDS011;4739;49.334;8.792;2022-11-20T04:15:29;13.93;;;10.47;;
9398;SDS011;4739;49.334;8.792;2022-11-20T04:17:54;12.30;;;10.23;;
9398;SDS011;4739;49.334;8.792;2022-11-20T04:20:20;13.43;;;9.47;;
9398;SDS011;4739;49.334;8.792;2022-11-20T04:22:46;13.60;;;9.53;;
9398;SDS011;4739;49.334;8.792;2022-11-20T04:25:11;13.57;;;10.03;;
9398;SDS011;4739;49.334;8.792;2022-11-20T04:27:37;12.93;;;9.67;;
9398;SDS011;4739;49.334;8.792;2022-11-20T04:30:03;10.57;;;8.57;;
9398;SDS011;4739;49.334;8.792;2022-11-20T04:32:28;12.73;;;9.17;;
9398;SDS011;4739;49.334;8.792;2022-11-20T04:34:54;10.67;;;8.87;;
9398;SDS011;4739;49.334;8.792;2022-11-20T04:37:20;12.00;;;9.17;;
9398;SDS011;4739;49.334;8.792;2022-11-20T04:39:45;10.70;;;8.40;;
9398;SDS011;4739;49.334;8.792;2022-11-20T04:42:11;11.93;;;8.77;;
9398;SDS011;4739;49.334;8.792;2022-11-20T04:44:55;11.50;;;8.90;;
9398;SDS011;4739;49.334;8.792;2022-11-20T04:47:21;10.10;;;8.30;;
9398;SDS011;4739;49.334;8.792;2022-11-20T04:49:46;10.47;;;8.50;;
9398;SDS011;4739;49.334;8.792;2022-11-20T04:52:12;11.77;;;9.00;;
9398;SDS011;4739;49.334;8.792;2022-11-20T04:54:38;9.30;;;7.77;;
9398;SDS011;4739;49.334;8.792;2022-11-20T04:57:03;9.67;;;7.77;;
9398;SDS011;4739;49.334;8.792;2022-11-20T04:59:29;10.27;;;8.13;;
9398;SDS011;4739;49.334;8.792;2022-11-20T05:01:55;10.33;;;8.23;;
9398;SDS011;4739;49.334;8.792;2022-11-20T05:04:20;10.60;;;8.90;;
9398;SDS011;4739;49.334;8.792;2022-11-20T05:06:46;11.23;;;7.80;;
9398;SDS011;4739;49.334;8.792;2022-11-20T05:09:12;8.30;;;7.37;;
9398;SDS011;4739;49.334;8.792;2022-11-20T05:11:38;9.43;;;7.40;;
9398;SDS011;4739;49.334;8.792;2022-11-20T05:14:03;10.93;;;8.07;;
9398;SDS011;4739;49.334;8.792;2022-11-20T05:16:29;8.77;;;7.33;;
9398;SDS011;4739;49.334;8.792;2022-11-20T05:18:55;10.13;;;7.57;;
9398;SDS011;4739;49.334;8.792;2022-11-20T05:21:21;9.20;;;8.00;;
9398;SDS011;4739;49.334;8.792;2022-11-20T05:23:47;10.20;;;8.07;;
9398;SDS011;4739;49.334;8.792;2022-11-20T05:26:20;9.90;;;7.80;;
9398;SDS011;4739;49.334;8.792;2022-11-20T05:28:47;10.57;;;8.73;;
9398;SDS011;4739;49.334;8.792;2022-11-20T05:31:14;10.67;;;7.63;;
9398;SDS011;4739;49.334;8.792;2022-11-20T05:33:42;9.67;;;8.63;;
9398;SDS011;4739;49.334;8.792;2022-11-20T05:36:10;12.07;;;8.87;;
9398;SDS011;4739;49.334;8.792;2022-11-20T05:38:37;11.43;;;9.10;;
9398;SDS011;4739;49.334;8.792;2022-11-20T05:41:06;10.83;;;8.90;;
9398;SDS011;4739;49.334;8.792;2022-11-20T05:43:38;11.00;;;8.97;;
9398;SDS011;4739;49.334;8.792;2022-11-20T05:46:05;10.53;;;8.80;;
9398;SDS011;4739;49.334;8.792;2022-11-20T05:48:32;11.20;;;8.67;;
9398;SDS011;4739;49.334;8.792;2022-11-20T05:50:59;10.30;;;8.87;;
9398;SDS011;4739;49.334;8.792;2022-11-20T05:53:26;12.53;;;9.13;;
9398;SDS011;4739;49.334;8.792;2022-11-20T05:56:08;10.23;;;9.13;;
9398;SDS011;4739;49.334;8.792;2022-11-20T05:58:36;11.70;;;9.40;;
9398;SDS011;4739;49.334;8.792;2022-11-20T06:03:30;11.00;;;9.10;;
9398;SDS011;4739;49.334;8.792;2022-11-20T06:05:58;11.53;;;9.30;;
9398;SDS011;4739;49.334;8.792;2022-11-20T06:08:24;11.93;;;9.03;;
9398;SDS011;4739;49.334;8.792;2022-11-20T06:10:49;10.10;;;9.00;;
9398;SDS011;4739;49.334;8.792;2022-11-20T06:13:15;9.80;;;8.50;;
9398;SDS011;4739;49.334;8.792;2022-11-20T06:15:40;10.30;;;9.17;;
9398;SDS011;4739;49.334;8.792;2022-11-20T06:18:06;11.80;;;9.40;;
9398;SDS011;4739;49.334;8.792;2022-11-20T06:20:31;9.70;;;8.67;;
9398;SDS011;4739;49.334;8.792;2022-11-20T06:22:57;12.17;;;8.90;;
9398;SDS011;4739;49.334;8.792;2022-11-20T06:25:23;12.10;;;9.43;;
9398;SDS011;4739;49.334;8.792;2022-11-20T06:27:48;10.43;;;8.83;;
9398;SDS011;4739;49.334;8.792;2022-11-20T06:30:14;12.73;;;9.70;;
9398;SDS011;4739;49.334;8.792;2022-11-20T06:32:39;10.67;;;9.57;;
9398;SDS011;4739;49.334;8.792;2022-11-20T06:35:05;12.03;;;9.40;;
9398;SDS011;4739;49.334;8.792;2022-11-20T06:37:31;11.57;;;9.73;;
9398;SDS011;4739;49.334;8.792;2022-11-20T06:39:56;11.53;;;9.50;;
9398;SDS011;4739;49.334;8.792;2022-11-20T06:42:23;10.17;;;9.07;;
9398;SDS011;4739;49.334;8.792;2022-11-20T06:44:49;11.83;;;9.63;;
9398;SDS011;4739;49.334;8.792;2022-11-20T06:47:14;11.70;;;9.80;;
9398;SDS011;4739;49.334;8.792;2022-11-20T06:49:40;10.83;;;9.47;;
9398;SDS011;4739;49.334;8.792;2022-11-20T06:52:06;12.07;;;8.83;;
9398;SDS011;4739;49.334;8.792;2022-11-20T06:54:31;12.13;;;9.50;;
9398;SDS011;4739;49.334;8.792;2022-11-20T06:56:57;10.83;;;9.13;;
9398;SDS011;4739;49.334;8.792;2022-11-20T06:59:22;10.10;;;8.63;;
9398;SDS011;4739;49.334;8.792;2022-11-20T07:01:48;11.37;;;9.50;;
9398;SDS011;4739;49.334;8.792;2022-11-20T07:04:14;11.23;;;8.77;;
9398;SDS011;4739;49.334;8.792;2022-11-20T07:06:39;12.00;;;8.93;;
9398;SDS011;4739;49.334;8.792;2022-11-20T07:09:05;9.93;;;8.17;;
9398;SDS011;4739;49.334;8.792;2022-11-20T07:11:30;10.07;;;8.70;;
9398;SDS011;4739;49.334;8.792;2022-11-20T07:13:56;10.17;;;8.33;;
9398;SDS011;4739;49.334;8.792;2022-11-20T07:16:22;10.53;;;8.43;;
9398;SDS011;4739;49.334;8.792;2022-11-20T07:18:48;9.10;;;8.03;;
9398;SDS011;4739;49.334;8.792;2022-11-20T07:21:13;10.97;;;8.37;;
9398;SDS011;4739;49.334;8.792;2022-11-20T07:23:39;8.70;;;7.80;;
9398;SDS011;4739;49.334;8.792;2022-11-20T07:26:08;9.53;;;8.10;;
9398;SDS011;4739;49.334;8.792;2022-11-20T07:28:35;9.70;;;7.40;;
9398;SDS011;4739;49.334;8.792;2022-11-20T07:31:02;9.53;;;7.77;;
9398;SDS011;4739;49.334;8.792;2022-11-20T07:33:28;11.73;;;8.20;;
9398;SDS011;4739;49.334;8.792;2022-11-20T07:35:54;10.70;;;8.67;;
9398;SDS011;4739;49.334;8.792;2022-11-20T07:38:20;9.33;;;7.87;;
9398;SDS011;4739;49.334;8.792;2022-11-20T07:40:45;8.50;;;7.63;;
9398;SDS011;4739;49.334;8.792;2022-11-20T07:43:11;11.47;;;7.60;;
9398;SDS011;4739;49.334;8.792;2022-11-20T07:45:36;9.83;;;7.27;;
9398;SDS011;4739;49.334;8.792;2022-11-20T07:48:03;9.43;;;7.50;;
9398;SDS011;4739;49.334;8.792;2022-11-20T07:50:29;9.20;;;7.40;;
9398;SDS011;4739;49.334;8.792;2022-11-20T07:53:01;8.07;;;6.40;;
9398;SDS011;4739;49.334;8.792;2022-11-20T07:55:27;8.97;;;6.70;;
9398;SDS011;4739;49.334;8.792;2022-11-20T07:57:56;7.20;;;6.43;;
9398;SDS011;4739;49.334;8.792;2022-11-20T08:00:22;6.40;;;5.80;;
9398;SDS011;4739;49.334;8.792;2022-11-20T08:02:48;6.90;;;6.13;;
9398;SDS011;4739;49.334;8.792;2022-11-20T08:05:14;7.07;;;5.73;;
9398;SDS011;4739;49.334;8.792;2022-11-20T08:07:40;8.20;;;7.03;;
9398;SDS011;4739;49.334;8.792;2022-11-20T08:10:07;8.23;;;6.50;;
9398;SDS011;4739;49.334;8.792;2022-11-20T08:12:34;6.17;;;5.50;;
9398;SDS011;4739;49.334;8.792;2022-11-20T08:15:19;7.63;;;5.97;;
9398;SDS011;4739;49.334;8.792;2022-11-20T08:17:44;6.97;;;5.63;;
9398;SDS011;4739;49.334;8.792;2022-11-20T08:20:10;7.37;;;5.80;;
9398;SDS011;4739;49.334;8.792;2022-11-20T08:22:35;8.73;;;6.53;;
9398;SDS011;4739;49.334;8.792;2022-11-20T08:25:01;6.50;;;5.53;;
9398;SDS011;4739;49.334;8.792;2022-11-20T08:27:27;6.13;;;5.53;;
9398;SDS011;4739;49.334;8.792;2022-11-20T08:29:52;7.87;;;5.53;;
9398;SDS011;4739;49.334;8.792;2022-11-20T08:32:18;6.97;;;6.20;;
9398;SDS011;4739;49.334;8.792;2022-11-20T08:37:11;6.80;;;5.90;;
9398;SDS011;4739;49.334;8.792;2022-11-20T08:39:37;6.70;;;6.10;;
9398;SDS011;4739;49.334;8.792;2022-11-20T08:42:06;6.70;;;6.00;;
9398;SDS011;4739;49.334;8.792;2022-11-20T08:44:32;6.33;;;5.70;;
9398;SDS011;4739;49.334;8.792;2022-11-20T08:46:57;8.57;;;5.70;;
9398;SDS011;4739;49.334;8.792;2022-11-20T08:49:23;5.97;;;5.40;;
9398;SDS011;4739;49.334;8.792;2022-11-20T08:51:49;6.83;;;5.77;;
9398;SDS011;4739;49.334;8.792;2022-11-20T08:54:17;6.40;;;5.77;;
9398;SDS011;4739;49.334;8.792;2022-11-20T08:56:44;6.10;;;5.53;;
9398;SDS011;4739;49.334;8.792;2022-11-20T08:59:10;8.77;;;6.87;;
9398;SDS011;4739;49.334;8.792;2022-11-20T09:01:35;6.83;;;6.23;;
9398;SDS011;4739;49.334;8.792;2022-11-20T09:04:01;5.70;;;5.20;;
9398;SDS011;4739;49.334;8.792;2022-11-20T09:06:28;6.83;;;5.43;;
9398;SDS011;4739;49.334;8.792;2022-11-20T09:08:54;6.70;;;5.53;;
9398;SDS011;4739;49.334;8.792;2022-11-20T09:11:20;6.73;;;5.40;;
9398;SDS011;4739;49.334;8.792;2022-11-20T09:13:46;6.23;;;5.20;;
9398;SDS011;4739;49.334;8.792;2022-11-20T09:16:11;6.07;;;5.07;;
9398;SDS011;4739;49.334;8.792;2022-11-20T09:18:37;6.17;;;4.73;;
9398;SDS011;4739;49.334;8.792;2022-11-20T09:21:04;5.87;;;5.27;;
9398;SDS011;4739;49.334;8.792;2022-11-20T09:23:32;5.10;;;4.60;;
9398;SDS011;4739;49.334;8.792;2022-11-20T09:26:06;6.10;;;5.50;;
9398;SDS011;4739;49.334;8.792;2022-11-20T09:28:34;7.37;;;5.50;;
9398;SDS011;4739;49.334;8.792;2022-11-20T09:30:59;7.10;;;5.57;;
9398;SDS011;4739;49.334;8.792;2022-11-20T09:33:25;5.67;;;5.17;;
9398;SDS011;4739;49.334;8.792;2022-11-20T09:35:51;6.30;;;5.70;;
9398;SDS011;4739;49.334;8.792;2022-11-20T09:38:20;6.17;;;5.07;;
9398;SDS011;4739;49.334;8.792;2022-11-20T09:40:57;6.30;;;4.97;;
9398;SDS011;4739;49.334;8.792;2022-11-20T09:46:28;9.97;;;5.57;;
9398;SDS011;4739;49.334;8.792;2022-11-20T09:51:53;5.93;;;5.20;;
9398;SDS011;4739;49.334;8.792;2022-11-20T09:54:42;6.87;;;5.80;;
9398;SDS011;4739;49.334;8.792;2022-11-20T09:57:12;5.90;;;5.30;;
9398;SDS011;4739;49.334;8.792;2022-11-20T09:59:44;6.10;;;5.30;;
9398;SDS011;4739;49.334;8.792;2022-11-20T10:02:19;6.27;;;5.10;;
9398;SDS011;4739;49.334;8.792;2022-11-20T10:07:47;6.90;;;5.97;;
9398;SDS011;4739;49.334;8.792;2022-11-20T10:15:55;5.40;;;4.90;;
9398;SDS011;4739;49.334;8.792;2022-11-20T10:23:54;5.80;;;5.20;;
9398;SDS011;4739;49.334;8.792;2022-11-20T10:29:17;5.50;;;5.00;;
9398;SDS011;4739;49.334;8.792;2022-11-20T10:31:56;6.40;;;5.80;;
9398;SDS011;4739;49.334;8.792;2022-11-20T10:37:00;9.13;;;7.37;;
9398;SDS011;4739;49.334;8.792;2022-11-20T10:42:43;5.47;;;4.97;;
9398;SDS011;4739;49.334;8.792;2022-11-20T10:47:48;5.77;;;5.17;;
9398;SDS011;4739;49.334;8.792;2022-11-20T10:50:16;5.87;;;4.90;;
9398;SDS011;4739;49.334;8.792;2022-11-20T10:53:08;4.73;;;4.20;;
9398;SDS011;4739;49.334;8.792;2022-11-20T10:56:15;5.17;;;4.77;;
9398;SDS011;4739;49.334;8.792;2022-11-20T11:01:29;6.10;;;4.60;;
9398;SDS011;4739;49.334;8.792;2022-11-20T11:03:55;5.00;;;4.47;;
9398;SDS011;4739;49.334;8.792;2022-11-20T11:09:00;4.43;;;4.03;;
9398;SDS011;4739;49.334;8.792;2022-11-20T11:11:33;5.23;;;4.47;;
9398;SDS011;4739;49.334;8.792;2022-11-20T11:14:06;4.37;;;4.07;;
9398;SDS011;4739;49.334;8.792;2022-11-20T11:16:32;4.67;;;4.03;;
9398;SDS011;4739;49.334;8.792;2022-11-20T11:19:13;4.00;;;3.70;;
9398;SDS011;4739;49.334;8.792;2022-11-20T11:21:45;4.17;;;3.77;;
9398;SDS011;4739;49.334;8.792;2022-11-20T11:24:25;3.97;;;3.40;;
9398;SDS011;4739;49.334;8.792;2022-11-20T11:27:02;5.30;;;4.10;;
9398;SDS011;4739;49.334;8.792;2022-11-20T11:29:36;5.00;;;4.00;;
9398;SDS011;4739;49.334;8.792;2022-11-20T11:32:08;5.27;;;4.37;;
9398;SDS011;4739;49.334;8.792;2022-11-20T11:37:12;4.40;;;4.00;;
9398;SDS011;4739;49.334;8.792;2022-11-20T11:39:42;4.50;;;3.43;;
9398;SDS011;4739;49.334;8.792;2022-11-20T11:42:11;4.47;;;3.60;;
9398;SDS011;4739;49.334;8.792;2022-11-20T11:44:43;4.73;;;4.10;;
9398;SDS011;4739;49.334;8.792;2022-11-20T11:47:30;6.77;;;5.33;;
9398;SDS011;4739;49.334;8.792;2022-11-20T11:58:14;3.43;;;3.00;;
9398;SDS011;4739;49.334;8.792;2022-11-20T12:00:41;6.27;;;4.97;;
9398;SDS011;4739;49.334;8.792;2022-11-20T12:03:20;6.07;;;4.47;;
9398;SDS011;4739;49.334;8.792;2022-11-20T12:05:51;5.17;;;3.80;;
9398;SDS011;4739;49.334;8.792;2022-11-20T12:11:42;5.43;;;3.27;;
9398;SDS011;4739;49.334;8.792;2022-11-20T12:14:21;3.60;;;3.30;;
9398;SDS011;4739;49.334;8.792;2022-11-20T12:17:02;4.40;;;4.00;;
9398;SDS011;4739;49.334;8.792;2022-11-20T12:19:30;5.80;;;4.50;;
9398;SDS011;4739;49.334;8.792;2022-11-20T12:24:42;3.13;;;2.83;;
9398;SDS011;4739;49.334;8.792;2022-11-20T12:30:18;4.27;;;2.60;;
9398;SDS011;4739;49.334;8.792;2022-11-20T12:32:49;3.33;;;2.50;;
9398;SDS011;4739;49.334;8.792;2022-11-20T12:35:52;5.20;;;2.27;;
9398;SDS011;4739;49.334;8.792;2022-11-20T12:59:05;3.87;;;2.17;;
9398;SDS011;4739;49.334;8.792;2022-11-20T13:07:31;3.20;;;1.80;;
9398;SDS011;4739;49.334;8.792;2022-11-20T13:09:59;3.63;;;2.27;;
9398;SDS011;4739;49.334;8.792;2022-11-20T13:12:36;6.43;;;4.10;;
9398;SDS011;4739;49.334;8.792;2022-11-20T13:17:55;5.17;;;2.30;;
9398;SDS011;4739;49.334;8.792;2022-11-20T13:20:24;2.60;;;1.70;;
9398;SDS011;4739;49.334;8.792;2022-11-20T13:22:53;3.13;;;1.90;;
9398;SDS011;4739;49.334;8.792;2022-11-20T13:25:33;4.33;;;2.07;;
9398;SDS011;4739;49.334;8.792;2022-11-20T13:28:01;5.43;;;3.07;;
9398;SDS011;4739;49.334;8.792;2022-11-20T13:30:33;3.20;;;2.07;;
9398;SDS011;4739;49.334;8.792;2022-11-20T13:33:05;2.67;;;1.60;;
9398;SDS011;4739;49.334;8.792;2022-11-20T13:35:37;2.70;;;1.40;;
9398;SDS011;4739;49.334;8.792;2022-11-20T13:40:37;2.23;;;1.20;;
9398;SDS011;4739;49.334;8.792;2022-11-20T13:43:42;4.60;;;1.50;;
9398;SDS011;4739;49.334;8.792;2022-11-20T13:46:08;5.30;;;1.83;;
9398;SDS011;4739;49.334;8.792;2022-11-20T13:48:41;2.77;;;1.20;;
9398;SDS011;4739;49.334;8.792;2022-11-20T13:57:36;5.40;;;1.30;;
9398;SDS011;4739;49.334;8.792;2022-11-20T14:00:17;3.70;;;1.60;;
9398;SDS011;4739;49.334;8.792;2022-11-20T14:02:52;3.17;;;1.40;;
9398;SDS011;4739;49.334;8.792;2022-11-20T14:06:00;4.43;;;2.00;;
9398;SDS011;4739;49.334;8.792;2022-11-20T14:11:18;4.50;;;1.40;;
9398;SDS011;4739;49.334;8.792;2022-11-20T14:13:59;3.23;;;1.10;;
9398;SDS011;4739;49.334;8.792;2022-11-20T14:16:26;2.77;;;1.40;;
9398;SDS011;4739;49.334;8.792;2022-11-20T14:18:54;4.00;;;1.73;;
9398;SDS011;4739;49.334;8.792;2022-11-20T14:21:28;3.53;;;1.73;;
9398;SDS011;4739;49.334;8.792;2022-11-20T14:24:06;5.47;;;2.40;;
9398;SDS011;4739;49.334;8.792;2022-11-20T14:26:36;4.70;;;1.70;;
9398;SDS011;4739;49.334;8.792;2022-11-20T14:29:11;3.00;;;1.50;;
9398;SDS011;4739;49.334;8.792;2022-11-20T14:31:42;3.67;;;1.50;;
9398;SDS011;4739;49.334;8.792;2022-11-20T14:36:58;2.70;;;1.67;;
9398;SDS011;4739;49.334;8.792;2022-11-20T14:39:35;1.70;;;1.20;;
9398;SDS011;4739;49.334;8.792;2022-11-20T14:42:15;2.27;;;1.57;;
9398;SDS011;4739;49.334;8.792;2022-11-20T14:44:42;2.83;;;1.40;;
9398;SDS011;4739;49.334;8.792;2022-11-20T14:47:10;3.67;;;1.50;;
9398;SDS011;4739;49.334;8.792;2022-11-20T14:49:38;3.00;;;1.30;;
9398;SDS011;4739;49.334;8.792;2022-11-20T14:52:13;3.63;;;1.80;;
9398;SDS011;4739;49.334;8.792;2022-11-20T14:54:44;2.57;;;1.40;;
9398;SDS011;4739;49.334;8.792;2022-11-20T14:57:19;3.10;;;1.73;;
9398;SDS011;4739;49.334;8.792;2022-11-20T14:59:45;2.20;;;1.50;;
9398;SDS011;4739;49.334;8.792;2022-11-20T15:02:11;2.87;;;1.47;;
9398;SDS011;4739;49.334;8.792;2022-11-20T15:04:50;3.13;;;1.60;;
9398;SDS011;4739;49.334;8.792;2022-11-20T15:08:04;6.23;;;2.10;;
9398;SDS011;4739;49.334;8.792;2022-11-20T15:12:48;6.13;;;1.80;;
9398;SDS011;4739;49.334;8.792;2022-11-20T15:15:43;2.20;;;1.40;;
9398;SDS011;4739;49.334;8.792;2022-11-20T15:18:18;3.43;;;1.70;;
9398;SDS011;4739;49.334;8.792;2022-11-20T15:20:46;2.50;;;1.40;;
9398;SDS011;4739;49.334;8.792;2022-11-20T15:23:13;3.10;;;1.10;;
9398;SDS011;4739;49.334;8.792;2022-11-20T15:25:42;3.20;;;1.47;;
9398;SDS011;4739;49.334;8.792;2022-11-20T15:30:44;3.63;;;1.80;;
9398;SDS011;4739;49.334;8.792;2022-11-20T15:33:11;3.23;;;1.17;;
9398;SDS011;4739;49.334;8.792;2022-11-20T15:35:37;2.70;;;1.50;;
9398;SDS011;4739;49.334;8.792;2022-11-20T15:38:03;3.43;;;1.70;;
9398;SDS011;4739;49.334;8.792;2022-11-20T15:40:28;2.60;;;1.70;;
9398;SDS011;4739;49.334;8.792;2022-11-20T15:42:54;2.47;;;2.17;;
9398;SDS011;4739;49.334;8.792;2022-11-20T15:45:50;1.70;;;1.30;;
9398;SDS011;4739;49.334;8.792;2022-11-20T15:48:18;3.33;;;1.60;;
9398;SDS011;4739;49.334;8.792;2022-11-20T15:50:56;3.03;;;1.67;;
9398;SDS011;4739;49.334;8.792;2022-11-20T15:53:28;3.83;;;1.73;;
9398;SDS011;4739;49.334;8.792;2022-11-20T15:55:54;3.17;;;2.00;;
9398;SDS011;4739;49.334;8.792;2022-11-20T15:58:20;3.27;;;1.77;;
9398;SDS011;4739;49.334;8.792;2022-11-20T16:00:47;4.47;;;2.17;;
9398;SDS011;4739;49.334;8.792;2022-11-20T16:03:13;2.60;;;1.50;;
9398;SDS011;4739;49.334;8.792;2022-11-20T16:05:40;4.97;;;3.13;;
9398;SDS011;4739;49.334;8.792;2022-11-20T16:08:05;3.67;;;2.20;;
9398;SDS011;4739;49.334;8.792;2022-11-20T16:10:31;2.80;;;1.93;;
9398;SDS011;4739;49.334;8.792;2022-11-20T16:12:57;4.80;;;1.57;;
9398;SDS011;4739;49.334;8.792;2022-11-20T16:15:42;3.93;;;1.83;;
9398;SDS011;4739;49.334;8.792;2022-11-20T16:18:18;2.33;;;1.83;;
9398;SDS011;4739;49.334;8.792;2022-11-20T16:20:46;2.33;;;1.90;;
9398;SDS011;4739;49.334;8.792;2022-11-20T16:23:19;3.73;;;1.80;;
9398;SDS011;4739;49.334;8.792;2022-11-20T16:25:45;5.67;;;2.10;;
9398;SDS011;4739;49.334;8.792;2022-11-20T16:28:11;3.33;;;1.87;;
9398;SDS011;4739;49.334;8.792;2022-11-20T16:30:37;3.27;;;1.80;;
9398;SDS011;4739;49.334;8.792;2022-11-20T16:33:03;3.83;;;2.00;;
9398;SDS011;4739;49.334;8.792;2022-11-20T16:35:30;3.90;;;1.90;;
9398;SDS011;4739;49.334;8.792;2022-11-20T16:37:56;4.07;;;3.10;;
9398;SDS011;4739;49.334;8.792;2022-11-20T16:40:23;4.77;;;2.17;;
9398;SDS011;4739;49.334;8.792;2022-11-20T16:42:49;3.63;;;2.00;;
9398;SDS011;4739;49.334;8.792;2022-11-20T16:45:15;4.20;;;1.90;;
9398;SDS011;4739;49.334;8.792;2022-11-20T16:47:42;2.93;;;1.57;;
9398;SDS011;4739;49.334;8.792;2022-11-20T16:50:08;3.20;;;1.80;;
9398;SDS011;4739;49.334;8.792;2022-11-20T16:52:34;5.87;;;2.30;;
9398;SDS011;4739;49.334;8.792;2022-11-20T16:54:59;4.23;;;1.83;;
9398;SDS011;4739;49.334;8.792;2022-11-20T16:57:28;4.47;;;3.00;;
9398;SDS011;4739;49.334;8.792;2022-11-20T16:59:57;3.83;;;3.00;;
9398;SDS011;4739;49.334;8.792;2022-11-20T17:02:23;5.10;;;2.00;;
9398;SDS011;4739;49.334;8.792;2022-11-20T17:04:49;2.60;;;2.30;;
9398;SDS011;4739;49.334;8.792;2022-11-20T17:07:15;3.30;;;2.20;;
9398;SDS011;4739;49.334;8.792;2022-11-20T17:09:41;3.27;;;2.17;;
9398;SDS011;4739;49.334;8.792;2022-11-20T17:12:07;3.93;;;2.43;;
9398;SDS011;4739;49.334;8.792;2022-11-20T17:14:32;3.43;;;2.23;;